Aviation Digital Data Service (ADDS)

Output produced by METARs form (0945 UTC 01 August 2015)
found at http://aviationweather.gov/adds/metars/
 
KSBY 010533Z 0106/0206 VRB05KT P6SM SKC 
     FM011600 25010KT P6SM SCT050 
     FM012300 22004KT P6SM BKN060 BKN150